sensor_id;sensor_type;location;lat;lon;timestamp;temperature;humidity
65470;DHT22;52067;50.710;14.492;2023-06-24T00:01:55;15.18;84.66
65470;DHT22;52067;50.710;14.492;2023-06-24T00:04:21;15.08;83.77
65470;DHT22;52067;50.710;14.492;2023-06-24T00:06:46;15.27;83.59
65470;DHT22;52067;50.710;14.492;2023-06-24T00:09:12;15.41;83.32
65470;DHT22;52067;50.710;14.492;2023-06-24T00:11:37;15.47;83.59
65470;DHT22;52067;50.710;14.492;2023-06-24T00:14:02;15.34;83.62
65470;DHT22;52067;50.710;14.492;2023-06-24T00:16:28;15.39;83.26
65470;DHT22;52067;50.710;14.492;2023-06-24T00:18:56;15.54;83.38
65470;DHT22;52067;50.710;14.492;2023-06-24T00:21:24;15.35;83.67
65470;DHT22;52067;50.710;14.492;2023-06-24T00:23:58;15.27;84.31
65470;DHT22;52067;50.710;14.492;2023-06-24T00:26:24;15.45;83.67
65470;DHT22;52067;50.710;14.492;2023-06-24T00:28:50;15.47;83.53
65470;DHT22;52067;50.710;14.492;2023-06-24T00:31:16;15.61;83.48
65470;DHT22;52067;50.710;14.492;2023-06-24T00:33:41;15.38;84.50
65470;DHT22;52067;50.710;14.492;2023-06-24T00:36:07;15.30;83.83
65470;DHT22;52067;50.710;14.492;2023-06-24T00:38:37;15.23;85.13
65470;DHT22;52067;50.710;14.492;2023-06-24T00:41:03;15.08;84.57
65470;DHT22;52067;50.710;14.492;2023-06-24T00:43:29;15.04;85.24
65470;DHT22;52067;50.710;14.492;2023-06-24T00:45:55;15.18;84.29
65470;DHT22;52067;50.710;14.492;2023-06-24T00:48:21;15.28;84.55
65470;DHT22;52067;50.710;14.492;2023-06-24T00:50:47;15.27;84.59
65470;DHT22;52067;50.710;14.492;2023-06-24T00:53:18;15.31;84.65
65470;DHT22;52067;50.710;14.492;2023-06-24T00:55:44;15.21;84.85
65470;DHT22;52067;50.710;14.492;2023-06-24T00:58:11;15.04;85.95
65470;DHT22;52067;50.710;14.492;2023-06-24T01:00:42;15.26;85.21
65470;DHT22;52067;50.710;14.492;2023-06-24T01:03:10;15.41;84.66
65470;DHT22;52067;50.710;14.492;2023-06-24T01:05:45;15.52;84.50
65470;DHT22;52067;50.710;14.492;2023-06-24T01:08:11;15.17;85.76
65470;DHT22;52067;50.710;14.492;2023-06-24T01:10:41;15.23;85.71
65470;DHT22;52067;50.710;14.492;2023-06-24T01:13:06;15.26;86.23
65470;DHT22;52067;50.710;14.492;2023-06-24T01:15:32;15.24;85.75
65470;DHT22;52067;50.710;14.492;2023-06-24T01:18:21;15.16;86.37
65470;DHT22;52067;50.710;14.492;2023-06-24T01:35:07;15.14;86.53
65470;DHT22;52067;50.710;14.492;2023-06-24T01:37:41;15.08;86.18
65470;DHT22;52067;50.710;14.492;2023-06-24T01:42:44;15.00;87.11
65470;DHT22;52067;50.710;14.492;2023-06-24T01:45:14;15.03;87.60
65470;DHT22;52067;50.710;14.492;2023-06-24T01:47:45;14.96;87.31
65470;DHT22;52067;50.710;14.492;2023-06-24T01:50:12;15.03;88.29
65470;DHT22;52067;50.710;14.492;2023-06-24T01:52:41;15.07;87.26
65470;DHT22;52067;50.710;14.492;2023-06-24T01:55:09;15.18;87.42
65470;DHT22;52067;50.710;14.492;2023-06-24T01:57:36;15.20;87.28
65470;DHT22;52067;50.710;14.492;2023-06-24T02:00:02;15.31;86.99
65470;DHT22;52067;50.710;14.492;2023-06-24T02:02:31;15.28;87.09
65470;DHT22;52067;50.710;14.492;2023-06-24T02:04:58;15.48;86.95
65470;DHT22;52067;50.710;14.492;2023-06-24T02:07:28;15.38;86.41
65470;DHT22;52067;50.710;14.492;2023-06-24T02:09:55;15.58;86.41
65470;DHT22;52067;50.710;14.492;2023-06-24T02:12:20;15.70;85.11
65470;DHT22;52067;50.710;14.492;2023-06-24T02:14:47;15.83;84.88
65470;DHT22;52067;50.710;14.492;2023-06-24T02:17:14;16.00;84.66
65470;DHT22;52067;50.710;14.492;2023-06-24T02:19:40;16.02;84.30
65470;DHT22;52067;50.710;14.492;2023-06-24T02:22:06;15.99;83.84
65470;DHT22;52067;50.710;14.492;2023-06-24T02:24:36;15.92;84.50
65470;DHT22;52067;50.710;14.492;2023-06-24T02:27:03;15.58;86.22
65470;DHT22;52067;50.710;14.492;2023-06-24T02:29:30;15.68;86.27
65470;DHT22;52067;50.710;14.492;2023-06-24T02:31:56;15.76;85.30
65470;DHT22;52067;50.710;14.492;2023-06-24T02:34:23;15.82;85.39
65470;DHT22;52067;50.710;14.492;2023-06-24T02:36:49;15.78;85.79
65470;DHT22;52067;50.710;14.492;2023-06-24T02:39:14;15.73;86.39
65470;DHT22;52067;50.710;14.492;2023-06-24T02:41:40;15.65;87.35
65470;DHT22;52067;50.710;14.492;2023-06-24T02:44:05;15.78;86.82
65470;DHT22;52067;50.710;14.492;2023-06-24T02:46:33;15.81;86.47
65470;DHT22;52067;50.710;14.492;2023-06-24T02:48:59;15.72;86.69
65470;DHT22;52067;50.710;14.492;2023-06-24T02:51:26;15.78;87.14
65470;DHT22;52067;50.710;14.492;2023-06-24T02:53:52;15.76;86.98
65470;DHT22;52067;50.710;14.492;2023-06-24T02:56:18;15.72;87.37
65470;DHT22;52067;50.710;14.492;2023-06-24T02:58:46;15.83;87.33
65470;DHT22;52067;50.710;14.492;2023-06-24T03:01:12;15.68;88.23
65470;DHT22;52067;50.710;14.492;2023-06-24T03:03:40;15.76;87.64
65470;DHT22;52067;50.710;14.492;2023-06-24T03:06:06;15.75;87.27
65470;DHT22;52067;50.710;14.492;2023-06-24T03:08:32;15.70;87.35
65470;DHT22;52067;50.710;14.492;2023-06-24T03:10:58;15.73;87.57
65470;DHT22;52067;50.710;14.492;2023-06-24T03:13:23;15.72;87.73
65470;DHT22;52067;50.710;14.492;2023-06-24T03:15:49;15.69;87.49
65470;DHT22;52067;50.710;14.492;2023-06-24T03:18:15;15.69;87.26
65470;DHT22;52067;50.710;14.492;2023-06-24T03:20:41;15.72;87.57
65470;DHT22;52067;50.710;14.492;2023-06-24T03:23:07;15.69;87.79
65470;DHT22;52067;50.710;14.492;2023-06-24T03:25:33;15.70;87.70
65470;DHT22;52067;50.710;14.492;2023-06-24T03:27:59;15.63;87.82
65470;DHT22;52067;50.710;14.492;2023-06-24T03:30:29;15.63;88.23
65470;DHT22;52067;50.710;14.492;2023-06-24T03:32:54;15.17;89.74
65470;DHT22;52067;50.710;14.492;2023-06-24T03:35:19;15.34;89.86
65470;DHT22;52067;50.710;14.492;2023-06-24T03:37:45;15.35;89.88
65470;DHT22;52067;50.710;14.492;2023-06-24T03:40:11;15.37;89.77
65470;DHT22;52067;50.710;14.492;2023-06-24T03:42:37;15.49;88.91
65470;DHT22;52067;50.710;14.492;2023-06-24T03:45:03;15.57;88.87
65470;DHT22;52067;50.710;14.492;2023-06-24T03:47:29;15.65;88.54
65470;DHT22;52067;50.710;14.492;2023-06-24T03:49:54;15.75;88.30
65470;DHT22;52067;50.710;14.492;2023-06-24T03:52:19;15.83;87.80
65470;DHT22;52067;50.710;14.492;2023-06-24T03:54:45;15.90;87.68
65470;DHT22;52067;50.710;14.492;2023-06-24T03:57:12;15.73;88.44
65470;DHT22;52067;50.710;14.492;2023-06-24T03:59:37;15.73;88.41
65470;DHT22;52067;50.710;14.492;2023-06-24T04:02:04;15.86;88.23
65470;DHT22;52067;50.710;14.492;2023-06-24T04:04:33;15.93;87.52
65470;DHT22;52067;50.710;14.492;2023-06-24T04:06:58;16.00;87.70
65470;DHT22;52067;50.710;14.492;2023-06-24T04:09:24;15.97;87.68
65470;DHT22;52067;50.710;14.492;2023-06-24T04:11:49;16.17;87.35
65470;DHT22;52067;50.710;14.492;2023-06-24T04:14:14;16.21;86.89
65470;DHT22;52067;50.710;14.492;2023-06-24T04:16:40;16.21;87.15
65470;DHT22;52067;50.710;14.492;2023-06-24T04:19:05;16.36;86.56
65470;DHT22;52067;50.710;14.492;2023-06-24T04:21:31;16.38;86.45
65470;DHT22;52067;50.710;14.492;2023-06-24T04:23:56;16.24;87.01
65470;DHT22;52067;50.710;14.492;2023-06-24T04:26:21;16.34;87.15
65470;DHT22;52067;50.710;14.492;2023-06-24T04:28:47;16.50;86.25
65470;DHT22;52067;50.710;14.492;2023-06-24T04:31:12;16.43;85.98
65470;DHT22;52067;50.710;14.492;2023-06-24T04:33:38;16.44;86.68
65470;DHT22;52067;50.710;14.492;2023-06-24T04:36:03;16.45;86.46
65470;DHT22;52067;50.710;14.492;2023-06-24T04:38:29;16.37;86.80
65470;DHT22;52067;50.710;14.492;2023-06-24T04:40:54;16.33;87.70
65470;DHT22;52067;50.710;14.492;2023-06-24T04:43:20;16.38;87.43
65470;DHT22;52067;50.710;14.492;2023-06-24T04:45:45;16.43;87.08
65470;DHT22;52067;50.710;14.492;2023-06-24T04:48:11;16.47;86.96
65470;DHT22;52067;50.710;14.492;2023-06-24T04:50:36;16.48;86.44
65470;DHT22;52067;50.710;14.492;2023-06-24T04:53:01;16.50;86.54
65470;DHT22;52067;50.710;14.492;2023-06-24T04:55:27;16.51;86.62
65470;DHT22;52067;50.710;14.492;2023-06-24T04:57:55;16.51;87.53
65470;DHT22;52067;50.710;14.492;2023-06-24T05:00:20;16.55;87.21
65470;DHT22;52067;50.710;14.492;2023-06-24T05:02:48;16.54;86.75
65470;DHT22;52067;50.710;14.492;2023-06-24T05:05:13;16.72;86.79
65470;DHT22;52067;50.710;14.492;2023-06-24T05:07:39;16.91;86.25
65470;DHT22;52067;50.710;14.492;2023-06-24T05:10:05;16.95;85.16
65470;DHT22;52067;50.710;14.492;2023-06-24T05:12:30;16.94;85.78
65470;DHT22;52067;50.710;14.492;2023-06-24T05:14:56;17.12;85.54
65470;DHT22;52067;50.710;14.492;2023-06-24T05:17:21;17.20;85.25
65470;DHT22;52067;50.710;14.492;2023-06-24T05:19:46;17.11;86.30
65470;DHT22;52067;50.710;14.492;2023-06-24T05:22:12;17.32;85.15
65470;DHT22;52067;50.710;14.492;2023-06-24T05:24:37;17.24;85.60
65470;DHT22;52067;50.710;14.492;2023-06-24T05:27:07;17.06;86.49
65470;DHT22;52067;50.710;14.492;2023-06-24T05:29:33;17.37;85.07
65470;DHT22;52067;50.710;14.492;2023-06-24T05:31:59;17.42;85.32
65470;DHT22;52067;50.710;14.492;2023-06-24T05:34:26;17.47;85.12
65470;DHT22;52067;50.710;14.492;2023-06-24T05:36:52;17.43;84.81
65470;DHT22;52067;50.710;14.492;2023-06-24T05:39:17;17.43;85.31
65470;DHT22;52067;50.710;14.492;2023-06-24T05:41:43;17.37;86.30
65470;DHT22;52067;50.710;14.492;2023-06-24T05:44:09;17.73;84.30
65470;DHT22;52067;50.710;14.492;2023-06-24T05:46:37;17.87;83.73
65470;DHT22;52067;50.710;14.492;2023-06-24T05:49:03;17.74;85.26
65470;DHT22;52067;50.710;14.492;2023-06-24T05:51:29;17.71;85.11
65470;DHT22;52067;50.710;14.492;2023-06-24T05:53:55;17.82;84.91
65470;DHT22;52067;50.710;14.492;2023-06-24T05:56:21;17.97;84.35
65470;DHT22;52067;50.710;14.492;2023-06-24T05:58:47;18.04;83.57
65470;DHT22;52067;50.710;14.492;2023-06-24T06:01:13;17.97;84.73
65470;DHT22;52067;50.710;14.492;2023-06-24T06:03:38;17.88;84.24
65470;DHT22;52067;50.710;14.492;2023-06-24T06:06:03;17.88;84.60
65470;DHT22;52067;50.710;14.492;2023-06-24T06:08:29;18.12;84.62
65470;DHT22;52067;50.710;14.492;2023-06-24T06:10:54;18.02;85.95
65470;DHT22;52067;50.710;14.492;2023-06-24T06:13:20;18.48;82.39
65470;DHT22;52067;50.710;14.492;2023-06-24T06:15:45;18.69;82.15
65470;DHT22;52067;50.710;14.492;2023-06-24T06:18:11;18.97;81.16
65470;DHT22;52067;50.710;14.492;2023-06-24T06:20:37;19.22;80.22
65470;DHT22;52067;50.710;14.492;2023-06-24T06:23:02;18.67;81.82
65470;DHT22;52067;50.710;14.492;2023-06-24T06:25:28;18.93;82.87
65470;DHT22;52067;50.710;14.492;2023-06-24T06:27:53;19.10;80.51
65470;DHT22;52067;50.710;14.492;2023-06-24T06:30:19;19.56;78.87
65470;DHT22;52067;50.710;14.492;2023-06-24T06:32:44;19.44;81.08
65470;DHT22;52067;50.710;14.492;2023-06-24T06:35:10;19.21;81.23
65470;DHT22;52067;50.710;14.492;2023-06-24T06:37:35;19.62;79.09
65470;DHT22;52067;50.710;14.492;2023-06-24T06:40:01;19.42;79.82
65470;DHT22;52067;50.710;14.492;2023-06-24T06:42:28;19.45;78.35
65470;DHT22;52067;50.710;14.492;2023-06-24T06:44:54;19.24;80.61
65470;DHT22;52067;50.710;14.492;2023-06-24T06:47:19;19.19;79.25
65470;DHT22;52067;50.710;14.492;2023-06-24T06:49:44;18.83;82.25
65470;DHT22;52067;50.710;14.492;2023-06-24T06:52:10;18.91;80.03
65470;DHT22;52067;50.710;14.492;2023-06-24T06:54:35;18.26;82.83
65470;DHT22;52067;50.710;14.492;2023-06-24T06:57:04;18.32;83.27
65470;DHT22;52067;50.710;14.492;2023-06-24T06:59:33;18.57;82.48
65470;DHT22;52067;50.710;14.492;2023-06-24T07:01:58;18.42;81.23
65470;DHT22;52067;50.710;14.492;2023-06-24T07:04:24;18.19;82.97
65470;DHT22;52067;50.710;14.492;2023-06-24T07:06:49;18.01;83.82
65470;DHT22;52067;50.710;14.492;2023-06-24T07:09:15;18.01;82.46
65470;DHT22;52067;50.710;14.492;2023-06-24T07:11:41;18.04;84.86
65470;DHT22;52067;50.710;14.492;2023-06-24T07:14:06;18.35;80.33
65470;DHT22;52067;50.710;14.492;2023-06-24T07:16:32;18.69;80.29
65470;DHT22;52067;50.710;14.492;2023-06-24T07:18:57;18.97;78.57
65470;DHT22;52067;50.710;14.492;2023-06-24T07:21:23;19.10;78.81
65470;DHT22;52067;50.710;14.492;2023-06-24T07:23:48;19.47;77.75
65470;DHT22;52067;50.710;14.492;2023-06-24T07:26:14;19.28;79.07
65470;DHT22;52067;50.710;14.492;2023-06-24T07:28:39;19.17;79.26
65470;DHT22;52067;50.710;14.492;2023-06-24T07:31:04;19.36;78.08
65470;DHT22;52067;50.710;14.492;2023-06-24T07:33:31;19.28;78.97
65470;DHT22;52067;50.710;14.492;2023-06-24T07:35:57;19.77;76.98
65470;DHT22;52067;50.710;14.492;2023-06-24T07:38:22;19.86;75.25
65470;DHT22;52067;50.710;14.492;2023-06-24T07:40:48;19.96;74.34
65470;DHT22;52067;50.710;14.492;2023-06-24T07:43:13;20.10;73.98
65470;DHT22;52067;50.710;14.492;2023-06-24T07:45:39;20.28;72.91
65470;DHT22;52067;50.710;14.492;2023-06-24T07:48:04;20.10;74.51
65470;DHT22;52067;50.710;14.492;2023-06-24T07:50:30;20.07;75.67
65470;DHT22;52067;50.710;14.492;2023-06-24T07:52:56;19.93;75.62
65470;DHT22;52067;50.710;14.492;2023-06-24T07:55:22;20.28;73.52
65470;DHT22;52067;50.710;14.492;2023-06-24T07:57:48;20.09;74.90
65470;DHT22;52067;50.710;14.492;2023-06-24T08:00:14;19.98;74.43
65470;DHT22;52067;50.710;14.492;2023-06-24T08:02:40;20.00;74.36
65470;DHT22;52067;50.710;14.492;2023-06-24T08:05:06;20.24;72.43
65470;DHT22;52067;50.710;14.492;2023-06-24T08:07:32;20.56;72.43
65470;DHT22;52067;50.710;14.492;2023-06-24T08:09:57;20.24;70.82
65470;DHT22;52067;50.710;14.492;2023-06-24T08:12:23;20.41;73.75
65470;DHT22;52067;50.710;14.492;2023-06-24T08:14:48;20.61;70.51
65470;DHT22;52067;50.710;14.492;2023-06-24T08:17:14;20.63;69.52
65470;DHT22;52067;50.710;14.492;2023-06-24T08:19:39;21.06;72.29
65470;DHT22;52067;50.710;14.492;2023-06-24T08:22:04;21.20;72.46
65470;DHT22;52067;50.710;14.492;2023-06-24T08:24:31;21.18;72.98
65470;DHT22;52067;50.710;14.492;2023-06-24T08:26:56;20.34;71.01
65470;DHT22;52067;50.710;14.492;2023-06-24T08:29:21;20.20;70.90
65470;DHT22;52067;50.710;14.492;2023-06-24T08:31:47;20.31;74.28
65470;DHT22;52067;50.710;14.492;2023-06-24T08:34:12;20.84;71.13
65470;DHT22;52067;50.710;14.492;2023-06-24T08:36:38;20.88;67.87
65470;DHT22;52067;50.710;14.492;2023-06-24T08:39:03;20.98;70.15
65470;DHT22;52067;50.710;14.492;2023-06-24T08:41:29;20.63;71.02
65470;DHT22;52067;50.710;14.492;2023-06-24T08:43:54;20.98;70.46
65470;DHT22;52067;50.710;14.492;2023-06-24T08:46:20;21.39;68.29
65470;DHT22;52067;50.710;14.492;2023-06-24T08:48:48;21.16;68.56
65470;DHT22;52067;50.710;14.492;2023-06-24T08:51:15;20.89;68.74
65470;DHT22;52067;50.710;14.492;2023-06-24T08:53:43;20.79;72.20
65470;DHT22;52067;50.710;14.492;2023-06-24T08:56:09;21.02;68.99
65470;DHT22;52067;50.710;14.492;2023-06-24T08:58:35;20.89;70.47
65470;DHT22;52067;50.710;14.492;2023-06-24T09:01:02;21.40;66.98
65470;DHT22;52067;50.710;14.492;2023-06-24T09:03:27;21.40;68.90
65470;DHT22;52067;50.710;14.492;2023-06-24T09:05:53;21.53;66.43
65470;DHT22;52067;50.710;14.492;2023-06-24T09:08:19;21.65;66.00
65470;DHT22;52067;50.710;14.492;2023-06-24T09:10:53;21.80;68.69
65470;DHT22;52067;50.710;14.492;2023-06-24T09:13:18;21.55;66.89
65470;DHT22;52067;50.710;14.492;2023-06-24T09:15:44;21.42;66.85
65470;DHT22;52067;50.710;14.492;2023-06-24T09:18:09;21.16;67.91
65470;DHT22;52067;50.710;14.492;2023-06-24T09:20:41;21.42;66.99
65470;DHT22;52067;50.710;14.492;2023-06-24T09:23:09;21.44;68.16
65470;DHT22;52067;50.710;14.492;2023-06-24T09:25:35;21.74;68.67
65470;DHT22;52067;50.710;14.492;2023-06-24T09:28:01;21.80;65.47
65470;DHT22;52067;50.710;14.492;2023-06-24T09:30:26;21.85;65.63
65470;DHT22;52067;50.710;14.492;2023-06-24T09:32:52;22.01;67.84
65470;DHT22;52067;50.710;14.492;2023-06-24T09:35:20;21.78;68.85
65470;DHT22;52067;50.710;14.492;2023-06-24T09:37:56;22.22;66.58
65470;DHT22;52067;50.710;14.492;2023-06-24T09:40:22;22.23;64.99
65470;DHT22;52067;50.710;14.492;2023-06-24T09:42:49;21.87;67.90
65470;DHT22;52067;50.710;14.492;2023-06-24T09:45:19;22.33;62.62
65470;DHT22;52067;50.710;14.492;2023-06-24T09:47:45;21.92;66.96
65470;DHT22;52067;50.710;14.492;2023-06-24T09:50:10;22.55;65.62
65470;DHT22;52067;50.710;14.492;2023-06-24T09:52:36;23.04;61.43
65470;DHT22;52067;50.710;14.492;2023-06-24T09:55:02;23.28;60.87
65470;DHT22;52067;50.710;14.492;2023-06-24T09:57:29;23.19;63.44
65470;DHT22;52067;50.710;14.492;2023-06-24T09:59:57;22.46;63.52
65470;DHT22;52067;50.710;14.492;2023-06-24T10:02:23;22.77;64.54
65470;DHT22;52067;50.710;14.492;2023-06-24T10:04:50;22.57;63.97
65470;DHT22;52067;50.710;14.492;2023-06-24T10:07:17;22.39;63.54
65470;DHT22;52067;50.710;14.492;2023-06-24T10:09:42;22.28;64.11
65470;DHT22;52067;50.710;14.492;2023-06-24T10:12:08;21.94;71.32
65470;DHT22;52067;50.710;14.492;2023-06-24T10:14:34;22.05;63.80
65470;DHT22;52067;50.710;14.492;2023-06-24T10:17:07;22.19;62.28
65470;DHT22;52067;50.710;14.492;2023-06-24T10:19:40;21.75;65.20
65470;DHT22;52067;50.710;14.492;2023-06-24T10:22:09;22.04;64.28
65470;DHT22;52067;50.710;14.492;2023-06-24T10:24:41;22.15;63.91
65470;DHT22;52067;50.710;14.492;2023-06-24T10:27:39;22.29;64.46
65470;DHT22;52067;50.710;14.492;2023-06-24T10:30:06;22.67;65.60
65470;DHT22;52067;50.710;14.492;2023-06-24T10:32:40;22.69;63.81
65470;DHT22;52067;50.710;14.492;2023-06-24T10:35:22;22.43;60.50
65470;DHT22;52067;50.710;14.492;2023-06-24T10:37:56;22.71;62.99
65470;DHT22;52067;50.710;14.492;2023-06-24T10:40:41;22.57;63.33
65470;DHT22;52067;50.710;14.492;2023-06-24T10:45:54;23.67;60.43
65470;DHT22;52067;50.710;14.492;2023-06-24T10:48:20;24.12;56.57
65470;DHT22;52067;50.710;14.492;2023-06-24T10:50:47;24.99;55.32
65470;DHT22;52067;50.710;14.492;2023-06-24T10:53:13;26.02;50.14
65470;DHT22;52067;50.710;14.492;2023-06-24T10:55:39;25.87;53.35
65470;DHT22;52067;50.710;14.492;2023-06-24T10:58:12;26.52;47.46
65470;DHT22;52067;50.710;14.492;2023-06-24T11:00:39;26.52;49.57
65470;DHT22;52067;50.710;14.492;2023-06-24T11:03:11;26.14;49.92
65470;DHT22;52067;50.710;14.492;2023-06-24T11:05:48;26.24;50.20
65470;DHT22;52067;50.710;14.492;2023-06-24T11:08:13;27.70;47.41
65470;DHT22;52067;50.710;14.492;2023-06-24T11:10:46;27.78;47.26
65470;DHT22;52067;50.710;14.492;2023-06-24T11:13:13;27.70;45.55
65470;DHT22;52067;50.710;14.492;2023-06-24T11:15:39;28.34;43.15
65470;DHT22;52067;50.710;14.492;2023-06-24T11:18:08;28.91;41.57
65470;DHT22;52067;50.710;14.492;2023-06-24T11:20:36;27.79;40.25
65470;DHT22;52067;50.710;14.492;2023-06-24T11:23:01;26.18;45.01
65470;DHT22;52067;50.710;14.492;2023-06-24T11:25:26;27.07;41.79
65470;DHT22;52067;50.710;14.492;2023-06-24T11:27:52;28.43;41.38
65470;DHT22;52067;50.710;14.492;2023-06-24T11:30:20;26.96;45.47
65470;DHT22;52067;50.710;14.492;2023-06-24T11:32:46;26.29;48.30
65470;DHT22;52067;50.710;14.492;2023-06-24T11:35:13;27.17;44.80
65470;DHT22;52067;50.710;14.492;2023-06-24T11:37:47;28.34;40.86
65470;DHT22;52067;50.710;14.492;2023-06-24T11:40:13;28.60;43.94
65470;DHT22;52067;50.710;14.492;2023-06-24T11:42:41;28.04;42.77
65470;DHT22;52067;50.710;14.492;2023-06-24T11:45:11;29.80;40.73
65470;DHT22;52067;50.710;14.492;2023-06-24T11:47:38;29.02;39.18
65470;DHT22;52067;50.710;14.492;2023-06-24T11:50:05;29.51;39.05
65470;DHT22;52067;50.710;14.492;2023-06-24T11:52:43;29.18;39.76
65470;DHT22;52067;50.710;14.492;2023-06-24T11:55:13;28.58;41.59
65470;DHT22;52067;50.710;14.492;2023-06-24T12:00:26;28.79;43.93
65470;DHT22;52067;50.710;14.492;2023-06-24T12:02:53;27.48;44.55
65470;DHT22;52067;50.710;14.492;2023-06-24T12:05:33;28.50;40.03
65470;DHT22;52067;50.710;14.492;2023-06-24T12:08:09;29.02;39.95
65470;DHT22;52067;50.710;14.492;2023-06-24T12:10:36;29.34;38.13
65470;DHT22;52067;50.710;14.492;2023-06-24T12:13:03;29.78;37.57
65470;DHT22;52067;50.710;14.492;2023-06-24T12:15:29;28.36;41.97
65470;DHT22;52067;50.710;14.492;2023-06-24T12:17:55;27.23;45.29
65470;DHT22;52067;50.710;14.492;2023-06-24T12:20:21;27.61;45.06
65470;DHT22;52067;50.710;14.492;2023-06-24T12:22:47;29.33;37.87
65470;DHT22;52067;50.710;14.492;2023-06-24T12:25:13;28.95;40.79
65470;DHT22;52067;50.710;14.492;2023-06-24T12:27:38;28.76;39.72
65470;DHT22;52067;50.710;14.492;2023-06-24T12:30:06;28.06;41.56
65470;DHT22;52067;50.710;14.492;2023-06-24T12:32:31;28.74;41.20
65470;DHT22;52067;50.710;14.492;2023-06-24T12:34:57;29.10;37.53
65470;DHT22;52067;50.710;14.492;2023-06-24T12:37:22;29.97;38.33
65470;DHT22;52067;50.710;14.492;2023-06-24T12:39:48;29.40;36.94
65470;DHT22;52067;50.710;14.492;2023-06-24T12:42:16;29.40;38.52
65470;DHT22;52067;50.710;14.492;2023-06-24T12:44:41;30.06;36.48
65470;DHT22;52067;50.710;14.492;2023-06-24T12:47:07;30.45;36.32
65470;DHT22;52067;50.710;14.492;2023-06-24T12:49:32;30.37;36.34
65470;DHT22;52067;50.710;14.492;2023-06-24T12:51:57;29.33;36.99
65470;DHT22;52067;50.710;14.492;2023-06-24T12:54:23;30.09;35.22
65470;DHT22;52067;50.710;14.492;2023-06-24T12:56:48;28.87;41.01
65470;DHT22;52067;50.710;14.492;2023-06-24T12:59:14;28.44;43.36
65470;DHT22;52067;50.710;14.492;2023-06-24T13:01:39;27.85;41.00
65470;DHT22;52067;50.710;14.492;2023-06-24T13:04:04;30.36;34.67
65470;DHT22;52067;50.710;14.492;2023-06-24T13:06:30;29.78;37.62
65470;DHT22;52067;50.710;14.492;2023-06-24T13:08:55;30.29;32.31
65470;DHT22;52067;50.710;14.492;2023-06-24T13:11:21;31.48;30.45
65470;DHT22;52067;50.710;14.492;2023-06-24T13:13:46;31.01;31.48
65470;DHT22;52067;50.710;14.492;2023-06-24T13:16:11;30.97;36.20
65470;DHT22;52067;50.710;14.492;2023-06-24T13:18:37;30.57;33.82
65470;DHT22;52067;50.710;14.492;2023-06-24T13:21:02;31.68;31.84
65470;DHT22;52067;50.710;14.492;2023-06-24T13:23:28;30.53;34.65
65470;DHT22;52067;50.710;14.492;2023-06-24T13:25:53;31.32;32.83
65470;DHT22;52067;50.710;14.492;2023-06-24T13:28:18;28.51;38.74
65470;DHT22;52067;50.710;14.492;2023-06-24T13:30:44;27.39;42.64
65470;DHT22;52067;50.710;14.492;2023-06-24T13:33:09;29.40;36.41
65470;DHT22;52067;50.710;14.492;2023-06-24T13:35:34;29.70;36.34
65470;DHT22;52067;50.710;14.492;2023-06-24T13:38:00;29.91;37.57
65470;DHT22;52067;50.710;14.492;2023-06-24T13:40:26;30.39;37.41
65470;DHT22;52067;50.710;14.492;2023-06-24T13:42:51;31.59;34.67
65470;DHT22;52067;50.710;14.492;2023-06-24T13:45:17;31.41;34.24
65470;DHT22;52067;50.710;14.492;2023-06-24T13:47:42;29.40;39.96
65470;DHT22;52067;50.710;14.492;2023-06-24T13:50:08;31.04;34.47
65470;DHT22;52067;50.710;14.492;2023-06-24T13:52:34;31.35;35.84
65470;DHT22;52067;50.710;14.492;2023-06-24T13:54:59;32.43;32.14
65470;DHT22;52067;50.710;14.492;2023-06-24T13:57:25;31.70;31.78
65470;DHT22;52067;50.710;14.492;2023-06-24T13:59:51;31.99;32.18
65470;DHT22;52067;50.710;14.492;2023-06-24T14:02:16;29.67;36.20
65470;DHT22;52067;50.710;14.492;2023-06-24T14:04:42;29.10;38.87
65470;DHT22;52067;50.710;14.492;2023-06-24T14:07:07;29.67;37.14
65470;DHT22;52067;50.710;14.492;2023-06-24T14:09:33;31.01;35.35
65470;DHT22;52067;50.710;14.492;2023-06-24T14:11:59;31.42;32.04
65470;DHT22;52067;50.710;14.492;2023-06-24T14:14:25;30.83;32.39
65470;DHT22;52067;50.710;14.492;2023-06-24T14:16:50;28.91;37.59
65470;DHT22;52067;50.710;14.492;2023-06-24T14:19:15;31.32;33.01
65470;DHT22;52067;50.710;14.492;2023-06-24T14:21:41;28.47;37.90
65470;DHT22;52067;50.710;14.492;2023-06-24T14:24:07;29.92;36.77
65470;DHT22;52067;50.710;14.492;2023-06-24T14:26:35;30.76;34.61
65470;DHT22;52067;50.710;14.492;2023-06-24T14:29:00;31.52;34.11
65470;DHT22;52067;50.710;14.492;2023-06-24T14:31:28;29.82;35.71
65470;DHT22;52067;50.710;14.492;2023-06-24T14:33:54;30.69;35.26
65470;DHT22;52067;50.710;14.492;2023-06-24T14:36:19;29.68;37.75
65470;DHT22;52067;50.710;14.492;2023-06-24T14:38:44;31.08;34.24
65470;DHT22;52067;50.710;14.492;2023-06-24T14:41:10;29.51;38.95
65470;DHT22;52067;50.710;14.492;2023-06-24T14:43:36;28.48;39.83
65470;DHT22;52067;50.710;14.492;2023-06-24T14:46:01;30.60;34.95
65470;DHT22;52067;50.710;14.492;2023-06-24T14:48:27;30.04;37.30
65470;DHT22;52067;50.710;14.492;2023-06-24T14:50:52;31.28;34.74
65470;DHT22;52067;50.710;14.492;2023-06-24T14:53:18;29.98;38.29
65470;DHT22;52067;50.710;14.492;2023-06-24T14:55:45;29.91;39.40
65470;DHT22;52067;50.710;14.492;2023-06-24T14:58:10;31.41;34.90
65470;DHT22;52067;50.710;14.492;2023-06-24T15:00:35;31.49;35.62
65470;DHT22;52067;50.710;14.492;2023-06-24T15:03:02;31.51;36.05
65470;DHT22;52067;50.710;14.492;2023-06-24T15:05:27;30.73;37.98
65470;DHT22;52067;50.710;14.492;2023-06-24T15:07:53;30.40;36.38
65470;DHT22;52067;50.710;14.492;2023-06-24T15:10:18;29.58;38.32
65470;DHT22;52067;50.710;14.492;2023-06-24T15:12:44;27.85;40.37
65470;DHT22;52067;50.710;14.492;2023-06-24T15:15:09;29.97;36.90
65470;DHT22;52067;50.710;14.492;2023-06-24T15:17:35;30.42;36.71
65470;DHT22;52067;50.710;14.492;2023-06-24T15:20:06;30.55;34.26
65470;DHT22;52067;50.710;14.492;2023-06-24T15:22:32;30.79;34.24
65470;DHT22;52067;50.710;14.492;2023-06-24T15:24:57;29.57;35.34
65470;DHT22;52067;50.710;14.492;2023-06-24T15:27:22;29.40;36.14
65470;DHT22;52067;50.710;14.492;2023-06-24T15:29:48;30.72;33.99
65470;DHT22;52067;50.710;14.492;2023-06-24T15:32:13;31.76;32.71
65470;DHT22;52067;50.710;14.492;2023-06-24T15:34:38;31.58;32.26